Time;durP1;ratioP1;P1;durP2;ratioP2;P2;SDS_P1;SDS_P2;PMS_P1;PMS_P2;Temp;Humidity;BMP_temperature;BMP_pressure;BME280_temperature;BME280_humidity;BME280_pressure;Samples;Min_cycle;Max_cycle;Signal;HPM_P1;HPM_P2
2022/07/01 04:02:35;;;;;;;8.90;5.90;;;20.30;96.30;;;;;;5037090;22;20540;-80
2022/07/01 04:05:00;;;;;;;7.13;5.60;;;20.30;96.30;;;;;;4997009;28;20423;-79
2022/07/01 04:07:26;;;;;;;8.77;5.03;;;20.30;96.30;;;;;;5012291;28;20169;-77
2022/07/01 04:09:52;;;;;;;9.53;5.20;;;20.30;96.30;;;;;;5004360;28;20193;-76
2022/07/01 04:12:21;;;;;;;15.53;6.00;;;20.60;96.30;;;;;;4992852;28;20639;-77
2022/07/01 04:14:47;;;;;;;6.67;4.90;;;21.40;96.30;;;;;;5003420;28;20259;-77
2022/07/01 04:17:12;;;;;;;5.80;5.00;;;22.00;96.30;;;;;;4999288;28;20831;-77
2022/07/01 04:19:38;;;;;;;4.93;4.43;;;22.60;96.30;;;;;;5008445;28;20665;-77
2022/07/01 04:24:47;;;;;;;6.10;4.70;;;24.20;96.30;;;;;;4989309;28;20203;-75
2022/07/01 04:27:13;;;;;;;5.47;4.07;;;24.60;96.30;;;;;;4992434;28;20424;-78
2022/07/01 04:29:39;;;;;;;7.20;4.13;;;24.50;96.30;;;;;;4992658;28;20180;-77
2022/07/01 04:32:05;;;;;;;5.43;4.30;;;24.70;96.30;;;;;;4996498;28;20205;-77
2022/07/01 04:34:31;;;;;;;4.53;4.10;;;25.40;96.30;;;;;;4996446;28;20410;-76
2022/07/01 04:36:56;;;;;;;9.60;3.97;;;25.50;96.30;;;;;;4996443;28;20219;-77
2022/07/01 04:39:22;;;;;;;7.50;4.20;;;25.70;96.30;;;;;;4996018;28;20188;-78
2022/07/01 04:41:59;;;;;;;10.20;4.00;;;26.10;96.30;;;;;;4996684;28;20197;-78
2022/07/01 04:44:27;;;;;;;11.30;4.70;;;26.10;96.30;;;;;;4993977;28;20636;-79
2022/07/01 04:46:52;;;;;;;6.00;3.90;;;26.20;96.30;;;;;;4994780;28;20848;-77
2022/07/01 04:49:18;;;;;;;8.93;4.10;;;26.10;96.30;;;;;;4994468;28;20423;-78
2022/07/01 04:51:43;;;;;;;5.80;3.30;;;25.20;96.30;;;;;;4996338;28;20212;-76
2022/07/01 04:54:10;;;;;;;8.00;4.10;;;23.80;96.30;;;;;;4995473;28;20169;-78
2022/07/01 04:56:36;;;;;;;12.77;3.33;;;23.10;96.30;;;;;;4991604;28;20186;-77
2022/07/01 04:59:03;;;;;;;5.43;3.07;;;22.50;96.30;;;;;;4976017;28;20405;-75
2022/07/01 05:01:28;;;;;;;5.13;3.00;;;22.20;96.30;;;;;;4976042;28;20453;-78
2022/07/01 05:03:55;;;;;;;16.33;3.83;;;22.00;96.30;;;;;;4989249;28;20431;-77
2022/07/01 05:06:20;;;;;;;6.07;3.80;;;21.80;96.30;;;;;;4986960;28;20170;-78
2022/07/01 05:08:46;;;;;;;6.70;3.63;;;21.50;96.30;;;;;;4996322;28;20503;-78
2022/07/01 05:11:11;;;;;;;3.47;3.00;;;21.50;96.30;;;;;;5015354;28;20211;-78
2022/07/01 05:13:37;;;;;;;9.67;4.00;;;21.50;96.30;;;;;;5015306;28;20188;-78
2022/07/01 05:16:03;;;;;;;9.40;3.57;;;21.40;96.30;;;;;;5015477;28;20177;-78
2022/07/01 05:23:58;;;;;;;8.00;3.70;;;24.00;96.30;;;;;;4976619;28;20416;-76
2022/07/01 05:26:25;;;;;;;17.30;3.17;;;25.30;96.30;;;;;;4979344;28;20413;-78
2022/07/01 05:28:52;;;;;;;10.63;3.10;;;26.10;96.30;;;;;;4994909;28;20192;-77
2022/07/01 05:31:17;;;;;;;6.60;3.50;;;26.50;96.30;;;;;;4990981;28;20525;-78
2022/07/01 05:33:43;;;;;;;3.70;2.90;;;26.30;96.30;;;;;;4992959;28;20510;-77
2022/07/01 05:36:09;;;;;;;4.23;2.93;;;25.80;96.30;;;;;;4995560;28;20474;-77
2022/07/01 05:38:35;;;;;;;5.20;3.07;;;25.80;96.30;;;;;;4994507;28;20177;-76
2022/07/01 05:41:01;;;;;;;7.33;3.50;;;25.60;96.30;;;;;;4995165;28;20456;-76
2022/07/01 05:43:26;;;;;;;7.33;3.67;;;24.90;96.30;;;;;;4994596;28;20181;-76
2022/07/01 05:45:51;;;;;;;5.83;3.63;;;24.60;96.30;;;;;;4993577;28;20184;-76
2022/07/01 05:48:17;;;;;;;3.90;3.60;;;24.60;96.30;;;;;;4994813;28;20176;-76
2022/07/01 05:50:47;;;;;;;3.30;3.00;;;24.30;96.30;;;;;;4995695;28;20220;-76
2022/07/01 05:53:12;;;;;;;6.10;3.50;;;24.00;96.30;;;;;;4995034;28;20169;-77
2022/07/01 05:55:38;;;;;;;3.50;3.20;;;24.00;96.30;;;;;;4992343;28;20432;-80
2022/07/01 05:58:05;;;;;;;6.17;3.60;;;23.90;96.30;;;;;;4980657;28;20189;-76
2022/07/01 06:00:31;;;;;;;5.57;3.10;;;24.10;96.30;;;;;;4988725;28;20260;-77
2022/07/01 06:02:56;;;;;;;3.63;3.33;;;25.10;96.30;;;;;;4985762;28;20511;-78
2022/07/01 06:05:22;;;;;;;7.53;3.87;;;26.10;96.30;;;;;;4986824;28;21551;-79
2022/07/01 06:07:47;;;;;;;3.90;3.17;;;27.10;96.30;;;;;;4979308;28;20793;-76
2022/07/01 06:10:13;;;;;;;7.83;3.90;;;26.60;96.30;;;;;;4990179;28;20716;-77
2022/07/01 06:12:39;;;;;;;6.37;3.50;;;26.10;96.30;;;;;;4987629;28;20219;-76
2022/07/01 06:15:10;;;;;;;6.10;3.83;;;26.00;96.30;;;;;;4988432;28;20664;-79
2022/07/01 06:17:39;;;;;;;5.57;3.40;;;27.30;96.30;;;;;;4989972;28;20448;-76
2022/07/01 06:20:06;;;;;;;5.77;3.40;;;29.10;95.50;;;;;;4989046;28;20416;-76
2022/07/01 06:22:32;;;;;;;7.77;3.43;;;29.50;91.70;;;;;;4989922;28;20587;-78
2022/07/01 06:24:58;;;;;;;3.93;3.03;;;28.40;92.50;;;;;;4989727;28;20503;-78
2022/07/01 06:27:24;;;;;;;5.47;3.97;;;27.10;96.30;;;;;;4989539;28;20511;-77
2022/07/01 06:29:50;;;;;;;3.90;3.60;;;26.60;96.30;;;;;;4988715;28;20288;-76
2022/07/01 06:32:15;;;;;;;5.17;3.73;;;25.60;96.30;;;;;;4989595;28;20235;-78
2022/07/01 06:34:41;;;;;;;5.00;3.80;;;25.30;96.30;;;;;;4988629;28;20924;-75
2022/07/01 06:37:07;;;;;;;4.73;3.10;;;24.70;96.30;;;;;;4988745;28;20705;-75
2022/07/01 06:39:33;;;;;;;4.93;3.57;;;24.80;96.30;;;;;;4987228;28;20177;-78
2022/07/01 06:41:58;;;;;;;4.57;3.97;;;26.00;96.30;;;;;;4989840;28;20502;-78
2022/07/01 06:44:24;;;;;;;4.00;3.03;;;27.00;96.30;;;;;;4989155;28;20269;-78
2022/07/01 06:46:49;;;;;;;7.53;3.63;;;26.90;96.30;;;;;;4989293;28;20193;-78
2022/07/01 06:49:15;;;;;;;8.33;3.90;;;26.20;96.30;;;;;;4987468;28;20955;-78
2022/07/01 06:51:41;;;;;;;7.03;4.03;;;26.10;96.30;;;;;;4988116;28;20656;-78
2022/07/01 06:54:07;;;;;;;6.10;3.10;;;26.90;96.30;;;;;;4988053;28;20181;-78
2022/07/01 06:56:32;;;;;;;4.83;3.60;;;26.50;96.30;;;;;;4990256;28;20181;-77
2022/07/01 06:58:58;;;;;;;10.80;3.80;;;25.60;96.30;;;;;;4988577;28;20451;-77
2022/07/01 07:01:24;;;;;;;8.83;4.17;;;24.80;96.30;;;;;;4987111;28;20278;-78
2022/07/01 07:03:50;;;;;;;7.10;3.63;;;24.00;96.30;;;;;;4978201;28;20193;-78
2022/07/01 07:06:16;;;;;;;8.77;4.00;;;24.30;96.30;;;;;;4988167;28;20189;-77
2022/07/01 07:08:42;;;;;;;7.53;4.20;;;24.00;96.30;;;;;;4989180;28;20422;-77
2022/07/01 07:11:08;;;;;;;14.27;4.90;;;23.80;96.30;;;;;;4987782;28;20511;-79
2022/07/01 07:13:37;;;;;;;6.77;5.00;;;23.90;96.30;;;;;;4989838;28;20173;-79
2022/07/01 07:16:03;;;;;;;5.03;3.50;;;24.00;96.30;;;;;;4989094;28;20420;-79
2022/07/01 07:18:29;;;;;;;4.07;3.67;;;24.40;96.30;;;;;;4989691;28;20408;-77
2022/07/01 07:20:54;;;;;;;4.23;2.93;;;24.80;96.30;;;;;;4988578;28;20782;-75
2022/07/01 07:23:20;;;;;;;4.43;3.30;;;25.10;96.30;;;;;;4988422;28;20264;-76
2022/07/01 07:25:45;;;;;;;31.83;6.17;;;25.50;96.30;;;;;;4987882;28;20211;-78
2022/07/01 07:28:11;;;;;;;3.67;3.37;;;25.50;96.30;;;;;;4988398;28;20191;-75
2022/07/01 07:30:37;;;;;;;7.23;4.47;;;25.30;96.30;;;;;;4988142;28;20205;-76
2022/07/01 07:33:03;;;;;;;5.83;4.00;;;24.90;96.30;;;;;;4987477;28;20176;-77
2022/07/01 07:35:28;;;;;;;5.63;4.07;;;24.10;96.30;;;;;;4989131;28;20319;-76
2022/07/01 07:37:53;;;;;;;5.17;3.30;;;23.90;96.30;;;;;;4987543;28;20177;-75
2022/07/01 07:40:19;;;;;;;8.30;3.67;;;24.30;96.30;;;;;;4988085;28;20909;-76
2022/07/01 07:42:46;;;;;;;5.50;3.90;;;24.40;96.30;;;;;;4987317;28;20189;-76
2022/07/01 07:45:13;;;;;;;4.17;3.77;;;25.10;96.30;;;;;;4988962;28;20555;-77
2022/07/01 07:47:45;;;;;;;4.33;3.50;;;25.60;96.30;;;;;;4986010;28;20931;-78
2022/07/01 07:50:12;;;;;;;5.40;4.30;;;26.00;96.30;;;;;;4988715;28;20907;-78
2022/07/01 07:52:39;;;;;;;8.13;4.37;;;26.30;96.30;;;;;;4984131;28;20467;-78
2022/07/01 07:55:06;;;;;;;9.37;4.87;;;25.10;96.30;;;;;;4979815;28;20463;-78
2022/07/01 07:57:32;;;;;;;5.87;4.50;;;24.30;96.30;;;;;;4987596;28;20409;-79
2022/07/01 07:59:57;;;;;;;5.67;4.23;;;24.00;96.30;;;;;;4988783;28;20432;-79
2022/07/01 08:02:23;;;;;;;11.23;4.80;;;23.60;96.30;;;;;;4987426;28;20706;-78
2022/07/01 08:04:48;;;;;;;6.60;4.00;;;23.50;96.30;;;;;;4988144;28;20182;-78
2022/07/01 08:07:14;;;;;;;8.37;4.90;;;23.40;96.30;;;;;;4986938;28;20189;-77
2022/07/01 08:09:45;;;;;;;9.70;4.50;;;23.20;96.30;;;;;;4987539;28;20253;-77
2022/07/01 08:12:11;;;;;;;7.27;4.40;;;23.30;96.30;;;;;;4988116;28;20209;-78
2022/07/01 08:14:37;;;;;;;8.77;5.80;;;23.20;96.30;;;;;;4987351;28;20416;-77
2022/07/01 08:17:03;;;;;;;5.50;5.00;;;23.20;96.30;;;;;;4987171;28;20190;-79
2022/07/01 08:19:28;;;;;;;15.03;6.00;;;23.10;96.30;;;;;;4987408;28;20551;-79
2022/07/01 08:21:54;;;;;;;5.63;5.00;;;23.10;96.30;;;;;;4988541;28;20599;-79
2022/07/01 08:24:19;;;;;;;9.80;5.50;;;23.10;96.30;;;;;;4987352;28;20193;-78
2022/07/01 08:26:45;;;;;;;5.90;5.40;;;23.10;96.30;;;;;;4988229;28;20197;-79
2022/07/01 08:29:10;;;;;;;11.30;5.20;;;23.20;96.30;;;;;;4987241;28;20190;-80
2022/07/01 08:31:36;;;;;;;6.10;5.50;;;22.80;96.30;;;;;;4987966;28;20336;-80
2022/07/01 08:34:02;;;;;;;6.13;4.90;;;22.40;96.30;;;;;;4987875;28;20179;-80
2022/07/01 08:36:27;;;;;;;10.47;5.40;;;22.40;96.30;;;;;;4988668;28;20245;-81
2022/07/01 08:38:53;;;;;;;6.60;5.67;;;22.40;96.30;;;;;;4987688;28;20421;-79
2022/07/01 08:41:19;;;;;;;6.03;5.43;;;22.20;96.30;;;;;;4988732;28;20201;-80
2022/07/01 08:43:45;;;;;;;7.30;5.20;;;22.10;96.30;;;;;;4988497;28;20185;-80
2022/07/01 08:46:11;;;;;;;7.07;5.90;;;22.00;96.30;;;;;;4987441;28;20420;-80
2022/07/01 08:48:41;;;;;;;6.47;5.83;;;21.80;96.30;;;;;;4988621;28;20186;-80
2022/07/01 08:51:07;;;;;;;5.63;4.97;;;21.70;96.30;;;;;;4985051;28;20468;-80
2022/07/01 08:53:32;;;;;;;8.10;5.40;;;21.80;96.30;;;;;;4987831;28;20800;-80
2022/07/01 08:58:45;;;;;;;5.67;4.90;;;21.70;96.30;;;;;;4981942;28;20271;-80
2022/07/01 09:01:23;;;;;;;13.63;5.97;;;21.90;96.30;;;;;;4980883;28;20460;-79
2022/07/01 09:03:55;;;;;;;4.87;4.47;;;22.30;96.30;;;;;;4988052;28;20462;-80
2022/07/01 09:06:23;;;;;;;5.40;4.87;;;22.80;96.30;;;;;;4987580;28;21219;-80
2022/07/01 09:08:49;;;;;;;9.20;4.90;;;22.50;96.30;;;;;;4987335;28;20440;-80
2022/07/01 09:11:20;;;;;;;6.33;4.67;;;21.80;96.30;;;;;;4987029;28;20456;-80
2022/07/01 09:14:08;;;;;;;5.50;5.00;;;21.30;96.30;;;;;;4987995;28;20186;-79
2022/07/01 09:16:48;;;;;;;6.60;5.00;;;20.90;96.30;;;;;;4985472;28;20416;-80
2022/07/01 09:19:15;;;;;;;5.53;4.83;;;20.60;96.30;;;;;;4994982;28;20420;-80
2022/07/01 09:21:41;;;;;;;5.27;4.87;;;20.90;96.30;;;;;;4990707;28;20527;-78
2022/07/01 09:24:23;;;;;;;6.47;5.07;;;21.30;96.30;;;;;;4992488;28;20455;-80
2022/07/01 09:26:56;;;;;;;9.00;5.17;;;21.50;96.30;;;;;;4990896;28;20436;-80
2022/07/01 09:29:31;;;;;;;9.67;5.77;;;21.40;96.30;;;;;;4991351;28;20428;-80
2022/07/01 09:31:57;;;;;;;6.30;5.70;;;21.20;96.30;;;;;;4990344;28;20459;-79
2022/07/01 09:34:22;;;;;;;6.23;5.00;;;21.00;96.30;;;;;;4991760;28;20421;-80
2022/07/01 09:36:53;;;;;;;6.87;5.37;;;21.00;96.30;;;;;;4992424;28;20189;-79
2022/07/01 09:39:18;;;;;;;6.13;5.53;;;20.90;96.30;;;;;;4992006;28;20648;-79
2022/07/01 09:41:44;;;;;;;8.90;6.87;;;20.70;96.30;;;;;;4989994;28;20447;-79
2022/07/01 09:44:09;;;;;;;7.00;6.47;;;20.20;96.30;;;;;;4990060;28;20182;-79
2022/07/01 09:46:36;;;;;;;7.03;6.27;;;20.10;96.30;;;;;;4989637;28;20209;-79
2022/07/01 09:49:02;;;;;;;7.20;6.50;;;20.20;96.30;;;;;;4990854;28;20195;-79
2022/07/01 09:51:28;;;;;;;5.73;5.20;;;20.30;96.30;;;;;;4991356;28;20987;-78
2022/07/01 09:53:56;;;;;;;13.63;7.20;;;20.30;96.30;;;;;;4989089;28;20425;-79
2022/07/01 09:56:23;;;;;;;7.53;6.47;;;19.90;96.30;;;;;;4990771;28;20455;-79
2022/07/01 09:58:49;;;;;;;13.47;6.03;;;19.60;96.30;;;;;;4989931;28;20990;-79
2022/07/01 10:01:15;;;;;;;14.63;7.27;;;19.30;96.30;;;;;;4990070;28;20972;-81
2022/07/01 10:03:41;;;;;;;13.20;7.70;;;19.10;96.30;;;;;;4985883;28;20265;-81
2022/07/01 10:06:06;;;;;;;8.33;7.50;;;18.70;96.30;;;;;;4980747;28;20425;-81
2022/07/01 10:09:02;;;;;;;15.63;7.23;;;18.60;96.30;;;;;;4989304;28;20471;-81
2022/07/01 10:11:52;;;;;;;9.50;8.53;;;18.50;96.30;;;;;;4989978;28;20228;-79
2022/07/01 10:14:18;;;;;;;9.23;7.67;;;18.50;96.30;;;;;;5000897;28;20409;-78
2022/07/01 10:16:48;;;;;;;8.23;7.50;;;18.50;96.30;;;;;;5005758;28;20859;-77
2022/07/01 10:19:20;;;;;;;8.10;7.40;;;18.50;96.30;;;;;;5006933;28;20421;-79
2022/07/01 10:21:45;;;;;;;10.30;7.00;;;18.40;96.30;;;;;;5000154;28;20437;-79
2022/07/01 10:24:13;;;;;;;7.13;6.53;;;18.20;96.30;;;;;;4987847;28;20428;-80
2022/07/01 10:26:40;;;;;;;8.47;7.77;;;18.10;96.30;;;;;;4990886;28;20177;-81
2022/07/01 10:29:27;;;;;;;8.00;6.73;;;17.90;96.30;;;;;;4985557;28;20421;-80
2022/07/01 10:31:52;;;;;;;7.40;6.70;;;17.80;96.30;;;;;;4991332;28;21198;-80
2022/07/01 10:34:19;;;;;;;8.87;8.07;;;17.60;96.30;;;;;;4989562;28;20507;-80
2022/07/01 10:36:59;;;;;;;10.23;8.00;;;17.50;96.30;;;;;;4991439;28;20756;-81
2022/07/01 10:39:27;;;;;;;9.50;8.50;;;17.40;96.30;;;;;;4990236;28;20424;-81
2022/07/01 10:41:52;;;;;;;9.73;7.87;;;17.30;96.30;;;;;;4990633;28;20445;-79
2022/07/01 10:44:19;;;;;;;10.03;9.03;;;17.10;96.30;;;;;;4989923;28;20424;-79
2022/07/01 10:46:56;;;;;;;9.57;8.10;;;16.80;96.30;;;;;;4988777;28;20181;-80
2022/07/01 10:49:37;;;;;;;9.97;9.10;;;16.80;96.30;;;;;;4988495;28;20436;-79
2022/07/01 10:52:15;;;;;;;9.20;8.40;;;16.60;96.30;;;;;;4987433;28;20468;-78
2022/07/01 10:54:41;;;;;;;9.57;8.60;;;16.50;96.30;;;;;;4985293;28;20439;-79
2022/07/01 10:57:15;;;;;;;8.80;8.10;;;16.40;96.30;;;;;;4981569;28;20419;-80
2022/07/01 10:59:42;;;;;;;11.30;8.50;;;16.30;96.30;;;;;;4987028;28;20417;-79
2022/07/01 11:02:16;;;;;;;8.07;7.27;;;16.20;96.30;;;;;;4989920;28;20460;-80
2022/07/01 11:04:42;;;;;;;7.50;6.80;;;16.10;96.30;;;;;;4987217;28;20428;-78
2022/07/01 11:07:10;;;;;;;8.47;5.80;;;16.20;96.30;;;;;;4989786;28;20499;-79
2022/07/01 11:09:36;;;;;;;8.97;4.77;;;16.10;96.30;;;;;;4989320;28;20190;-80
2022/07/01 11:12:02;;;;;;;4.63;4.23;;;16.10;96.30;;;;;;4984255;28;20507;-79
2022/07/01 11:14:28;;;;;;;4.43;3.60;;;16.10;96.30;;;;;;4985411;28;20173;-79
2022/07/01 11:16:55;;;;;;;2.97;2.67;;;16.20;96.30;;;;;;4985749;28;21194;-79
2022/07/01 11:19:20;;;;;;;3.50;3.20;;;16.30;96.30;;;;;;4988909;28;21223;-80
2022/07/01 11:21:53;;;;;;;2.90;2.70;;;16.30;96.30;;;;;;4989424;28;20552;-80
2022/07/01 11:24:20;;;;;;;2.70;2.50;;;16.30;96.30;;;;;;4995168;28;20181;-80
2022/07/01 11:26:46;;;;;;;2.30;2.10;;;16.20;96.30;;;;;;4995815;28;20499;-80
2022/07/01 11:29:12;;;;;;;5.37;2.33;;;16.10;96.30;;;;;;4998638;28;20428;-80
2022/07/01 11:31:38;;;;;;;3.43;2.13;;;16.20;96.30;;;;;;4990854;28;20517;-79
2022/07/01 11:34:04;;;;;;;2.90;2.20;;;16.20;96.30;;;;;;4989724;28;20503;-79
2022/07/01 11:39:22;;;;;;;1.80;1.70;;;16.10;96.30;;;;;;4988146;28;20400;-76
2022/07/01 11:41:58;;;;;;;2.70;1.73;;;16.10;96.30;;;;;;4988874;28;20456;-76
2022/07/01 11:44:37;;;;;;;1.93;1.83;;;16.20;96.30;;;;;;4990082;28;20570;-77
2022/07/01 11:47:07;;;;;;;2.10;2.00;;;16.40;96.30;;;;;;4986798;28;20419;-79
2022/07/01 11:49:34;;;;;;;1.80;1.70;;;16.70;96.30;;;;;;4988165;28;20467;-79
2022/07/01 11:52:03;;;;;;;2.37;2.17;;;16.80;96.30;;;;;;4980918;28;20468;-79
2022/07/01 11:54:28;;;;;;;1.90;1.80;;;17.20;96.30;;;;;;4990015;28;20420;-79
2022/07/01 11:56:54;;;;;;;1.80;1.70;;;17.50;96.30;;;;;;4993464;28;20413;-79
2022/07/01 11:59:20;;;;;;;1.60;1.50;;;17.50;96.30;;;;;;5003480;28;20263;-79
2022/07/01 12:01:53;;;;;;;1.47;1.37;;;17.60;96.30;;;;;;5008289;28;20213;-79
2022/07/01 12:04:19;;;;;;;1.50;1.40;;;17.50;96.30;;;;;;4994134;28;20641;-79
2022/07/01 12:06:45;;;;;;;1.50;1.40;;;17.20;96.30;;;;;;4994527;28;20420;-80
2022/07/01 12:09:16;;;;;;;2.07;1.60;;;17.20;96.30;;;;;;4998667;28;20169;-79
2022/07/01 12:11:50;;;;;;;1.83;1.73;;;17.40;96.30;;;;;;5013434;28;20467;-79
2022/07/01 12:14:35;;;;;;;2.23;1.63;;;17.40;96.30;;;;;;4997109;28;20457;-80
2022/07/01 12:17:06;;;;;;;1.60;1.50;;;17.30;96.30;;;;;;4992912;28;20448;-78
2022/07/01 12:19:39;;;;;;;1.87;1.67;;;17.10;96.30;;;;;;4991558;28;21103;-79
2022/07/01 12:22:08;;;;;;;2.80;1.40;;;16.80;96.30;;;;;;4991789;28;20451;-79
2022/07/01 12:24:34;;;;;;;1.67;1.57;;;16.60;96.30;;;;;;4992162;28;20426;-79
2022/07/01 12:26:59;;;;;;;1.73;1.63;;;16.30;96.30;;;;;;4992277;28;20424;-77
2022/07/01 12:29:50;;;;;;;3.87;1.80;;;16.30;96.30;;;;;;4991736;28;20645;-78
2022/07/01 12:32:24;;;;;;;1.70;1.60;;;16.20;96.30;;;;;;4991801;28;20573;-78
2022/07/01 12:34:53;;;;;;;2.03;1.93;;;16.20;96.30;;;;;;4991247;28;20504;-77
2022/07/01 12:37:39;;;;;;;2.60;2.07;;;16.00;96.30;;;;;;4989935;28;20415;-78
2022/07/01 12:40:20;;;;;;;4.47;2.43;;;16.00;96.30;;;;;;4989052;28;20524;-75
2022/07/01 12:42:46;;;;;;;2.30;2.20;;;15.90;96.30;;;;;;4985883;28;20444;-76
2022/07/01 12:45:17;;;;;;;2.57;2.37;;;15.90;96.30;;;;;;4991230;28;20503;-76
2022/07/01 12:47:45;;;;;;;4.30;2.80;;;15.70;96.30;;;;;;4991651;28;20417;-76
2022/07/01 12:50:16;;;;;;;2.77;2.57;;;15.60;96.30;;;;;;4989034;28;20424;-78
2022/07/01 12:53:10;;;;;;;5.33;2.97;;;15.50;96.30;;;;;;4992507;28;20968;-79
2022/07/01 12:55:50;;;;;;;4.40;3.30;;;15.50;96.30;;;;;;4994388;28;20762;-79
2022/07/01 12:58:21;;;;;;;3.90;3.20;;;15.50;96.30;;;;;;4994859;28;20401;-81
2022/07/01 13:00:49;;;;;;;3.47;3.17;;;15.40;96.30;;;;;;4994696;28;20452;-78
2022/07/01 13:03:18;;;;;;;10.33;3.03;;;15.20;96.30;;;;;;4994779;28;20927;-77
2022/07/01 13:05:44;;;;;;;3.40;2.93;;;15.20;96.30;;;;;;4995487;28;20436;-77
2022/07/01 13:08:10;;;;;;;7.40;3.07;;;15.30;96.30;;;;;;4994381;28;20793;-76
2022/07/01 13:10:36;;;;;;;3.80;3.07;;;15.30;96.30;;;;;;4994832;28;20181;-78
2022/07/01 13:13:02;;;;;;;3.70;3.40;;;15.30;96.30;;;;;;4995775;28;20548;-76
2022/07/01 13:15:28;;;;;;;6.07;3.10;;;15.40;96.30;;;;;;5000229;28;20655;-77
2022/07/01 13:17:53;;;;;;;4.80;3.40;;;15.40;96.30;;;;;;4999741;28;20449;-77
2022/07/01 13:20:19;;;;;;;3.30;3.10;;;15.50;96.30;;;;;;4998710;28;20235;-76
2022/07/01 13:22:45;;;;;;;2.90;2.70;;;15.50;96.30;;;;;;5003256;28;20256;-77
2022/07/01 13:25:12;;;;;;;9.20;3.10;;;15.60;96.30;;;;;;4996621;28;20184;-78
2022/07/01 13:27:38;;;;;;;3.80;3.40;;;15.50;96.30;;;;;;4996985;28;20461;-78
2022/07/01 13:30:06;;;;;;;4.00;3.60;;;15.50;96.30;;;;;;5001295;28;20413;-75
2022/07/01 13:32:32;;;;;;;3.93;3.50;;;15.40;96.30;;;;;;4998096;28;20213;-75
2022/07/01 13:34:57;;;;;;;4.93;4.53;;;15.40;96.30;;;;;;4996536;28;20436;-77
2022/07/01 13:37:23;;;;;;;18.50;4.00;;;15.50;96.30;;;;;;5000075;28;20169;-77
2022/07/01 13:39:48;;;;;;;5.60;4.03;;;15.50;96.30;;;;;;4998758;28;20697;-78
2022/07/01 13:42:14;;;;;;;3.87;3.57;;;15.60;96.30;;;;;;5001033;28;20229;-78
2022/07/01 13:44:39;;;;;;;4.77;4.30;;;15.60;96.30;;;;;;5000111;28;20209;-77
2022/07/01 13:47:09;;;;;;;3.90;3.60;;;15.60;96.30;;;;;;4997270;28;20189;-78
2022/07/01 13:49:36;;;;;;;4.70;4.20;;;15.60;96.30;;;;;;4998323;28;20669;-77
2022/07/01 13:52:02;;;;;;;4.97;4.47;;;15.70;96.30;;;;;;4996177;28;20460;-77
2022/07/01 13:54:27;;;;;;;6.17;4.53;;;15.60;96.30;;;;;;4995594;28;20415;-78
2022/07/01 13:56:53;;;;;;;4.73;4.37;;;15.60;96.30;;;;;;4998256;28;20261;-78
2022/07/01 13:59:18;;;;;;;4.97;4.20;;;15.60;96.30;;;;;;5000545;28;20204;-78
2022/07/01 14:01:44;;;;;;;4.97;4.53;;;15.50;96.30;;;;;;4998716;28;20216;-78
2022/07/01 14:04:10;;;;;;;4.97;4.57;;;15.30;96.30;;;;;;4994712;28;20232;-78
2022/07/01 14:06:35;;;;;;;4.33;4.00;;;15.10;96.30;;;;;;4995369;28;20178;-77
2022/07/01 14:09:01;;;;;;;5.50;5.00;;;15.10;96.30;;;;;;4994841;28;20802;-76
2022/07/01 14:11:27;;;;;;;5.33;4.57;;;15.00;96.30;;;;;;4994944;28;20205;-76
2022/07/01 14:13:52;;;;;;;5.90;5.30;;;15.10;96.30;;;;;;4994829;28;20609;-78
2022/07/01 14:16:17;;;;;;;5.00;4.60;;;15.10;96.30;;;;;;4994646;28;20708;-78
2022/07/01 14:18:44;;;;;;;5.77;4.70;;;15.20;96.30;;;;;;4994184;28;20240;-78
2022/07/01 14:21:10;;;;;;;5.23;4.50;;;15.30;96.30;;;;;;4993292;28;20225;-78
2022/07/01 14:23:36;;;;;;;7.00;4.90;;;15.40;96.30;;;;;;4994714;28;20417;-76
2022/07/01 14:26:01;;;;;;;6.80;5.60;;;15.50;96.30;;;;;;4994654;28;20243;-76
2022/07/01 14:28:27;;;;;;;5.70;5.20;;;15.50;96.30;;;;;;4994552;28;20593;-76
2022/07/01 14:30:54;;;;;;;6.27;5.73;;;15.80;96.30;;;;;;4994646;28;20443;-76
2022/07/01 14:33:20;;;;;;;7.87;5.70;;;15.90;96.30;;;;;;4994464;28;20170;-76
2022/07/01 14:35:47;;;;;;;10.43;5.40;;;15.90;96.30;;;;;;4994446;28;20916;-76
2022/07/01 14:38:13;;;;;;;6.60;5.27;;;16.10;96.30;;;;;;4994173;28;20893;-76
2022/07/01 14:40:40;;;;;;;7.20;5.10;;;16.20;96.30;;;;;;4994613;28;20816;-78
2022/07/01 14:43:05;;;;;;;5.33;4.83;;;16.40;96.30;;;;;;4994125;28;20952;-78
2022/07/01 14:45:31;;;;;;;8.07;6.20;;;16.40;96.30;;;;;;4994274;28;20452;-78
2022/07/01 14:47:57;;;;;;;7.93;5.83;;;16.50;96.30;;;;;;4994015;28;20243;-78
2022/07/01 14:50:23;;;;;;;6.97;5.30;;;16.40;96.30;;;;;;4994123;28;20897;-78
2022/07/01 14:52:48;;;;;;;6.43;5.60;;;16.30;96.30;;;;;;4993917;28;20213;-78
2022/07/01 14:55:14;;;;;;;6.30;5.70;;;16.30;96.30;;;;;;4994181;28;20181;-78
2022/07/01 14:57:40;;;;;;;6.80;6.10;;;16.10;96.30;;;;;;4993806;28;20209;-78
2022/07/01 15:00:07;;;;;;;7.07;6.00;;;16.00;96.30;;;;;;4994071;28;20452;-78
2022/07/01 15:02:33;;;;;;;7.43;5.90;;;16.10;96.30;;;;;;4992523;28;20217;-78
2022/07/01 15:04:58;;;;;;;7.50;6.53;;;16.00;96.30;;;;;;4992795;28;20448;-76
2022/07/01 15:07:24;;;;;;;8.00;6.40;;;15.70;96.30;;;;;;4993895;28;20428;-78
2022/07/01 15:09:50;;;;;;;10.53;6.90;;;15.70;96.30;;;;;;5001994;28;20725;-77
2022/07/01 15:12:15;;;;;;;7.23;6.53;;;15.60;96.30;;;;;;5013250;28;20208;-77
2022/07/01 15:14:41;;;;;;;6.40;5.80;;;15.50;96.30;;;;;;5012420;28;20412;-77
2022/07/01 15:17:07;;;;;;;9.70;6.87;;;15.40;96.30;;;;;;5013249;28;20181;-78
2022/07/01 15:19:33;;;;;;;7.37;6.67;;;15.40;96.30;;;;;;5013060;28;20181;-77
2022/07/01 15:21:59;;;;;;;7.27;6.57;;;15.40;96.30;;;;;;5012917;28;20432;-77
2022/07/01 15:24:24;;;;;;;9.07;7.23;;;15.40;96.30;;;;;;5012097;28;20207;-78
2022/07/01 15:26:51;;;;;;;9.90;6.20;;;15.40;96.30;;;;;;5013120;28;20185;-77
2022/07/01 15:29:17;;;;;;;8.53;7.73;;;15.20;96.30;;;;;;5011564;28;20184;-78
2022/07/01 15:31:43;;;;;;;7.87;6.10;;;15.20;96.30;;;;;;5012775;28;21032;-78
2022/07/01 15:34:08;;;;;;;8.63;6.70;;;15.20;96.30;;;;;;5012967;28;20184;-78
2022/07/01 15:36:34;;;;;;;7.17;6.47;;;15.00;96.30;;;;;;5012725;28;20184;-77
2022/07/01 15:39:00;;;;;;;8.60;5.40;;;15.00;96.30;;;;;;5012497;28;20177;-77
2022/07/01 15:41:27;;;;;;;9.87;6.17;;;14.80;96.30;;;;;;4993250;28;20202;-77
2022/07/01 15:43:53;;;;;;;9.50;6.30;;;14.70;96.30;;;;;;4993279;28;20901;-77
2022/07/01 15:46:19;;;;;;;5.53;5.03;;;14.70;96.30;;;;;;4993327;28;20460;-77
2022/07/01 15:48:45;;;;;;;7.20;5.10;;;14.70;96.30;;;;;;4992847;28;20428;-77
2022/07/01 15:51:10;;;;;;;4.97;4.57;;;14.50;96.30;;;;;;4992983;28;20575;-77
2022/07/01 15:53:36;;;;;;;7.10;4.90;;;14.50;96.30;;;;;;4993024;28;20173;-77
2022/07/01 15:56:01;;;;;;;5.33;4.83;;;14.40;96.30;;;;;;4993025;28;20690;-77
2022/07/01 15:58:29;;;;;;;6.53;5.13;;;14.40;96.30;;;;;;4992674;28;20208;-76
2022/07/01 16:00:55;;;;;;;7.53;5.30;;;14.30;96.30;;;;;;4992719;28;20495;-77
2022/07/01 16:03:21;;;;;;;10.53;5.07;;;14.30;96.30;;;;;;4992982;28;20408;-77
2022/07/01 16:05:49;;;;;;;9.57;5.13;;;14.30;96.30;;;;;;4992897;28;20260;-77
2022/07/01 16:08:31;;;;;;;6.00;5.37;;;14.40;96.30;;;;;;4992617;28;20224;-77
2022/07/01 16:11:10;;;;;;;7.10;4.80;;;14.40;96.30;;;;;;5011419;28;20490;-77
2022/07/01 16:13:38;;;;;;;6.20;4.53;;;14.40;96.30;;;;;;5013084;28;20418;-76
2022/07/01 16:16:06;;;;;;;5.37;4.87;;;14.50;96.30;;;;;;5012229;28;20438;-76
2022/07/01 16:18:32;;;;;;;7.87;4.83;;;14.50;96.30;;;;;;5010534;28;20396;-76
2022/07/01 17:05:01;;;;;;;3.23;2.90;;;14.20;96.30;;;;;;5139437;22;20851;-77
2022/07/01 17:07:26;;;;;;;3.50;3.20;;;14.20;96.30;;;;;;4993780;28;20558;-77
2022/07/01 17:09:54;;;;;;;3.57;3.13;;;14.20;96.30;;;;;;4976477;28;21022;-77
2022/07/01 17:12:20;;;;;;;4.30;3.17;;;14.20;96.30;;;;;;4993544;28;20572;-77
2022/07/01 17:14:46;;;;;;;5.63;3.43;;;14.10;96.30;;;;;;4976347;28;20421;-77
2022/07/01 17:17:14;;;;;;;3.93;3.53;;;14.20;96.30;;;;;;4995688;28;20170;-78
2022/07/01 17:19:41;;;;;;;4.03;3.70;;;14.20;96.30;;;;;;4995535;28;20447;-78
2022/07/01 17:22:13;;;;;;;6.27;5.67;;;14.30;96.30;;;;;;4995598;28;20455;-77
2022/07/01 17:24:55;;;;;;;4.63;3.63;;;14.30;96.30;;;;;;4978357;28;20471;-78
2022/07/01 17:27:51;;;;;;;6.10;3.73;;;14.30;96.30;;;;;;4995611;28;20923;-78
2022/07/01 17:30:21;;;;;;;4.33;3.90;;;14.30;96.30;;;;;;4995001;28;20483;-78
2022/07/01 17:32:54;;;;;;;5.83;3.57;;;14.30;96.30;;;;;;4995561;28;20964;-77
2022/07/01 17:35:21;;;;;;;6.47;3.80;;;14.30;96.30;;;;;;4995430;28;20396;-77
2022/07/01 17:37:51;;;;;;;3.80;3.20;;;14.20;96.30;;;;;;4994323;28;20424;-77
2022/07/01 17:40:19;;;;;;;5.97;3.17;;;14.00;96.30;;;;;;4977922;28;20424;-77
2022/07/01 17:42:48;;;;;;;3.43;3.13;;;13.90;96.30;;;;;;4994989;28;20454;-77
2022/07/01 17:45:14;;;;;;;4.87;3.40;;;13.90;96.30;;;;;;4977947;28;20536;-77
2022/07/01 17:47:40;;;;;;;5.30;3.80;;;13.90;96.30;;;;;;4995106;28;20471;-77